createdAt,value
2022-10-19T00:01:06.346Z,8.13
2022-10-19T00:02:08.901Z,8.05
2022-10-19T00:03:11.355Z,8.02
2022-10-19T00:04:21.115Z,8.12
2022-10-19T00:05:23.359Z,8.13
2022-10-19T00:06:29.460Z,8.13
2022-10-19T00:07:32.253Z,8.14
2022-10-19T00:08:36.379Z,8.14
2022-10-19T00:09:38.710Z,8.16
2022-10-19T00:10:41.822Z,8.22
2022-10-19T00:11:49.707Z,8.21
2022-10-19T00:12:52.258Z,8.23
2022-10-19T00:13:55.678Z,8.26
2022-10-19T00:14:58.238Z,8.18
2022-10-19T00:16:00.479Z,8.19
2022-10-19T00:17:02.821Z,8.19
2022-10-19T00:18:06.322Z,8.15
2022-10-19T00:19:13.265Z,8.16
2022-10-19T00:20:15.669Z,8.13
2022-10-19T00:21:19.718Z,8.21
2022-10-19T00:22:22.170Z,8.29
2022-10-19T00:23:24.408Z,8.14
2022-10-19T00:24:26.682Z,8.16
2022-10-19T00:25:29.078Z,8.20
2022-10-19T00:26:31.661Z,8.17
2022-10-19T00:27:35.724Z,8.19
2022-10-19T00:28:39.636Z,8.23
2022-10-19T00:29:41.929Z,8.26
2022-10-19T00:30:44.169Z,8.26
2022-10-19T00:31:46.467Z,8.26
2022-10-19T00:32:48.759Z,8.31
2022-10-19T00:33:51.351Z,8.30
2022-10-19T00:35:12.222Z,8.28
2022-10-19T00:36:23.696Z,8.26
2022-10-19T00:37:25.974Z,8.19
2022-10-19T00:38:33.164Z,8.15
2022-10-19T00:39:35.464Z,8.13
2022-10-19T00:40:39.419Z,8.18
2022-10-19T00:41:42.901Z,8.15
2022-10-19T00:42:45.119Z,8.20
2022-10-19T00:44:01.337Z,8.08
2022-10-19T00:45:14.554Z,8.10
2022-10-19T00:46:16.881Z,8.14
2022-10-19T00:47:23.351Z,8.16
2022-10-19T00:48:30.166Z,8.18
2022-10-19T00:49:36.131Z,8.11
2022-10-19T00:50:39.630Z,8.14
2022-10-19T00:51:45.207Z,8.15
2022-10-19T00:52:47.822Z,8.01
2022-10-19T00:53:50.439Z,8.01
2022-10-19T00:54:55.327Z,7.96
2022-10-19T00:55:59.584Z,7.94
2022-10-19T00:57:04.325Z,8.02
2022-10-19T00:58:08.126Z,8.02
2022-10-19T00:59:12.403Z,8.02
2022-10-19T01:00:14.844Z,8.06
2022-10-19T01:01:20.443Z,8.13
2022-10-19T01:02:23.581Z,8.14
2022-10-19T01:03:26.174Z,8.17
2022-10-19T01:04:30.841Z,8.21
2022-10-19T01:05:34.371Z,8.17
2022-10-19T01:06:37.373Z,8.19
2022-10-19T01:07:39.958Z,8.23
2022-10-19T01:08:42.722Z,8.28
2022-10-19T01:09:45.320Z,8.28
2022-10-19T01:11:02.019Z,8.30
2022-10-19T01:12:20.180Z,8.35
2022-10-19T01:13:43.796Z,8.33
2022-10-19T01:15:04.055Z,8.37
2022-10-19T01:16:21.370Z,8.38
2022-10-19T01:17:48.341Z,8.42
2022-10-19T01:19:35.108Z,8.44
2022-10-19T01:21:14.384Z,8.50
2022-10-19T01:22:58.578Z,8.46
2022-10-19T01:24:16.034Z,8.53
2022-10-19T01:25:55.573Z,8.52
2022-10-19T01:27:16.894Z,8.53
2022-10-19T01:28:56.720Z,8.57
2022-10-19T01:30:15.602Z,8.65
2022-10-19T01:31:23.887Z,8.65
2022-10-19T01:32:47.832Z,8.62
2022-10-19T01:33:52.911Z,8.72
2022-10-19T01:35:04.500Z,8.74
2022-10-19T01:36:29.947Z,8.76
2022-10-19T01:37:40.021Z,8.76
2022-10-19T01:39:17.162Z,8.72
2022-10-19T01:40:28.334Z,8.79
2022-10-19T01:41:41.869Z,8.81
2022-10-19T01:42:46.754Z,8.84
2022-10-19T01:44:01.147Z,8.85
2022-10-19T01:45:12.158Z,8.86
2022-10-19T01:46:16.895Z,8.91
2022-10-19T01:47:25.164Z,8.89
2022-10-19T01:48:32.700Z,8.89
2022-10-19T01:49:50.126Z,8.92
2022-10-19T01:51:02.183Z,8.97
2022-10-19T01:52:06.627Z,8.96
2022-10-19T01:53:12.571Z,9.03
2022-10-19T01:54:17.103Z,9.10
2022-10-19T01:55:21.758Z,9.12
2022-10-19T01:56:27.688Z,9.20
2022-10-19T01:57:35.456Z,9.20
2022-10-19T01:58:41.272Z,9.22
2022-10-19T01:59:44.924Z,9.22
2022-10-19T02:00:52.800Z,9.31
2022-10-19T02:01:56.182Z,9.34
2022-10-19T02:03:00.811Z,9.36
2022-10-19T02:04:04.351Z,9.37
2022-10-19T02:05:08.454Z,9.36
2022-10-19T02:06:12.070Z,9.38
2022-10-19T02:07:15.597Z,9.40
2022-10-19T02:08:26.912Z,9.41
2022-10-19T02:09:29.470Z,9.39
2022-10-19T02:10:34.500Z,9.34
2022-10-19T02:11:38.285Z,9.36
2022-10-19T02:12:41.400Z,9.40
2022-10-19T02:13:46.297Z,9.44
2022-10-19T02:14:53.568Z,9.44
2022-10-19T02:15:59.607Z,9.45
2022-10-19T02:17:11.622Z,9.49
2022-10-19T02:18:17.885Z,9.49
2022-10-19T02:19:21.894Z,9.46
2022-10-19T02:20:24.500Z,9.48
2022-10-19T02:21:27.993Z,9.46
2022-10-19T02:22:31.127Z,9.41
2022-10-19T02:23:34.226Z,9.43
2022-10-19T02:24:36.658Z,9.40
2022-10-19T02:25:38.954Z,9.43
2022-10-19T02:26:41.814Z,9.38
2022-10-19T02:27:44.760Z,9.37
2022-10-19T02:28:48.392Z,9.37
2022-10-19T02:29:50.807Z,9.37
2022-10-19T02:30:53.382Z,9.35
2022-10-19T02:31:55.645Z,9.31
2022-10-19T02:32:58.100Z,9.32
2022-10-19T02:34:00.793Z,9.37
2022-10-19T02:35:03.335Z,9.26
2022-10-19T02:36:06.079Z,9.31
2022-10-19T02:37:08.645Z,9.36
2022-10-19T02:38:15.101Z,9.39
2022-10-19T02:39:17.670Z,9.43
2022-10-19T02:40:20.161Z,9.48
2022-10-19T02:41:27.730Z,9.55
2022-10-19T02:42:37.669Z,9.57
2022-10-19T02:43:42.932Z,9.61
2022-10-19T02:45:01.933Z,9.67
2022-10-19T02:46:14.210Z,9.68
2022-10-19T02:47:24.991Z,9.71
2022-10-19T02:48:32.082Z,9.70
2022-10-19T02:49:36.763Z,9.73
2022-10-19T02:50:44.686Z,9.77
2022-10-19T02:52:08.693Z,9.79
2022-10-19T02:53:11.445Z,9.82
2022-10-19T02:54:13.642Z,9.85
2022-10-19T02:55:15.986Z,9.84
2022-10-19T02:56:18.291Z,9.85
2022-10-19T02:57:24.202Z,9.86
2022-10-19T02:58:26.451Z,9.86
2022-10-19T02:59:28.939Z,9.86
2022-10-19T03:00:31.364Z,9.88
2022-10-19T03:01:33.499Z,9.86
2022-10-19T03:02:35.790Z,9.90
2022-10-19T03:03:38.078Z,9.92
2022-10-19T03:04:41.843Z,9.95
2022-10-19T03:05:44.086Z,9.95
2022-10-19T03:06:46.924Z,9.95
2022-10-19T03:07:49.225Z,9.94
2022-10-19T03:08:51.511Z,9.95
2022-10-19T03:09:53.815Z,9.98
2022-10-19T03:10:59.119Z,10.01
2022-10-19T03:12:01.369Z,10.01
2022-10-19T03:13:03.657Z,10.00
2022-10-19T03:14:06.192Z,10.03
2022-10-19T03:15:09.162Z,10.02
2022-10-19T03:16:12.855Z,9.99
2022-10-19T03:17:15.190Z,10.00
2022-10-19T03:18:17.427Z,9.99
2022-10-19T03:19:19.881Z,10.00
2022-10-19T03:20:22.126Z,10.00
2022-10-19T03:21:24.472Z,10.02
2022-10-19T03:22:26.916Z,10.02
2022-10-19T03:23:29.941Z,10.05
2022-10-19T03:24:32.359Z,10.07
2022-10-19T03:25:34.579Z,10.08
2022-10-19T03:26:37.579Z,10.09
2022-10-19T03:27:40.001Z,10.13
2022-10-19T03:28:45.335Z,10.14
2022-10-19T03:29:47.761Z,10.17
2022-10-19T03:30:50.007Z,10.17
2022-10-19T03:31:52.313Z,10.18
2022-10-19T03:32:54.522Z,10.16
2022-10-19T03:33:56.813Z,10.10
2022-10-19T03:34:59.105Z,10.13
2022-10-19T03:36:25.236Z,10.15
2022-10-19T03:37:28.739Z,10.17
2022-10-19T03:38:33.329Z,10.17
2022-10-19T03:39:35.703Z,10.18
2022-10-19T03:40:38.113Z,10.19
2022-10-19T03:41:40.971Z,10.19
2022-10-19T03:42:43.680Z,10.21
2022-10-19T03:43:46.137Z,10.22
2022-10-19T03:44:48.424Z,10.22
2022-10-19T03:45:50.883Z,10.24
2022-10-19T03:46:53.461Z,10.20
2022-10-19T03:47:56.123Z,10.17
2022-10-19T03:49:00.527Z,10.23
2022-10-19T03:50:02.997Z,10.23
2022-10-19T03:51:12.925Z,10.28
2022-10-19T03:52:15.327Z,10.28
2022-10-19T03:53:17.540Z,10.28
2022-10-19T03:54:22.457Z,10.30
2022-10-19T03:55:27.221Z,10.32
2022-10-19T03:56:31.184Z,10.36
2022-10-19T03:57:33.573Z,10.33
2022-10-19T03:58:38.212Z,10.36
2022-10-19T03:59:40.515Z,10.38
2022-10-19T04:00:42.888Z,10.40
2022-10-19T04:01:46.597Z,10.42
2022-10-19T04:02:48.801Z,10.42
2022-10-19T04:03:55.531Z,10.41
2022-10-19T04:04:57.964Z,10.40
2022-10-19T04:06:05.738Z,10.39
2022-10-19T04:07:08.058Z,10.41
2022-10-19T04:08:11.454Z,10.41
2022-10-19T04:09:18.546Z,10.45
2022-10-19T04:10:20.847Z,10.39
2022-10-19T04:11:26.535Z,10.41
2022-10-19T04:12:29.438Z,10.40
2022-10-19T04:13:32.820Z,10.41
2022-10-19T04:14:52.405Z,10.44
2022-10-19T04:15:58.775Z,10.42
2022-10-19T04:17:02.563Z,10.42
2022-10-19T04:18:04.912Z,10.41
2022-10-19T04:19:09.063Z,10.47
2022-10-19T04:20:11.672Z,10.47
2022-10-19T04:21:27.846Z,10.46
2022-10-19T04:22:30.132Z,10.50
2022-10-19T04:23:36.140Z,10.50
2022-10-19T04:24:38.434Z,10.47
2022-10-19T04:25:40.643Z,10.45
2022-10-19T04:27:01.929Z,10.46
2022-10-19T04:28:04.266Z,10.47
2022-10-19T04:29:06.683Z,10.50
2022-10-19T04:30:09.505Z,10.53
2022-10-19T04:31:12.952Z,10.50
2022-10-19T04:32:15.172Z,10.50
2022-10-19T04:33:17.725Z,10.50
2022-10-19T04:34:20.002Z,10.50
2022-10-19T04:35:22.304Z,10.49
2022-10-19T04:36:28.037Z,10.51
2022-10-19T04:37:30.525Z,10.51
2022-10-19T04:38:34.517Z,10.52
2022-10-19T04:39:39.777Z,10.51
2022-10-19T04:40:42.078Z,10.49
2022-10-19T04:41:44.325Z,10.51
2022-10-19T04:42:46.669Z,10.54
2022-10-19T04:43:49.834Z,10.55
2022-10-19T04:44:52.036Z,10.55
2022-10-19T04:45:54.345Z,10.57
2022-10-19T04:46:56.673Z,10.59
2022-10-19T04:47:59.109Z,10.59
2022-10-19T04:49:04.364Z,10.61
2022-10-19T04:50:06.703Z,10.63
2022-10-19T04:51:10.044Z,10.62
2022-10-19T04:52:12.183Z,10.61
2022-10-19T04:53:14.432Z,10.59
2022-10-19T04:54:16.794Z,10.56
2022-10-19T04:55:18.964Z,10.52
2022-10-19T04:56:23.350Z,10.50
2022-10-19T04:57:27.368Z,10.55
2022-10-19T04:58:30.247Z,10.59
2022-10-19T04:59:32.709Z,10.60
2022-10-19T05:00:37.548Z,10.60
2022-10-19T05:01:46.416Z,10.67
2022-10-19T05:02:49.670Z,10.65
2022-10-19T05:03:59.192Z,10.69
2022-10-19T05:05:01.403Z,10.70
2022-10-19T05:06:04.216Z,10.72
2022-10-19T05:07:06.475Z,10.75
2022-10-19T05:08:09.951Z,10.83
2022-10-19T05:09:12.362Z,10.88
2022-10-19T05:10:17.556Z,10.94
2022-10-19T05:11:26.483Z,10.99
2022-10-19T05:12:28.719Z,11.03
2022-10-19T05:13:34.425Z,11.18
2022-10-19T05:14:39.057Z,11.23
2022-10-19T05:15:44.235Z,11.25
2022-10-19T05:16:46.451Z,11.27
2022-10-19T05:17:48.689Z,11.27
2022-10-19T05:18:53.609Z,11.25
2022-10-19T05:19:55.842Z,11.25
2022-10-19T05:21:07.269Z,11.26
2022-10-19T05:22:09.794Z,11.26
2022-10-19T05:23:11.964Z,11.25
2022-10-19T05:24:14.360Z,11.28
2022-10-19T05:25:16.803Z,11.28
2022-10-19T05:26:21.201Z,11.28
2022-10-19T05:27:23.571Z,11.30
2022-10-19T05:28:27.695Z,11.30
2022-10-19T05:29:30.389Z,11.27
2022-10-19T05:30:33.034Z,11.28
2022-10-19T05:31:35.419Z,11.32
2022-10-19T05:32:37.643Z,11.31
2022-10-19T05:33:41.022Z,11.34
2022-10-19T05:34:43.649Z,11.34
2022-10-19T05:35:45.943Z,11.36
2022-10-19T05:36:48.222Z,11.39
2022-10-19T05:37:55.588Z,11.37
2022-10-19T05:38:58.705Z,11.38
2022-10-19T05:40:01.192Z,11.40
2022-10-19T05:41:03.406Z,11.41
2022-10-19T05:42:05.567Z,11.42
2022-10-19T05:43:10.185Z,11.41
2022-10-19T05:44:16.073Z,11.40
2022-10-19T05:45:18.538Z,11.43
2022-10-19T05:46:20.796Z,11.44
2022-10-19T05:47:26.202Z,11.46
2022-10-19T05:48:33.947Z,11.48
2022-10-19T05:49:36.614Z,11.51
2022-10-19T05:50:39.165Z,11.56
2022-10-19T05:51:42.062Z,11.56
2022-10-19T05:52:44.517Z,11.56
2022-10-19T05:53:47.033Z,11.53
2022-10-19T05:54:49.186Z,11.61
2022-10-19T05:55:51.420Z,11.60
2022-10-19T05:56:54.011Z,11.63
2022-10-19T05:57:56.346Z,11.63
2022-10-19T05:59:02.262Z,11.62
2022-10-19T06:00:05.396Z,11.62
2022-10-19T06:01:14.981Z,11.66
2022-10-19T06:02:17.344Z,11.66
2022-10-19T06:03:19.745Z,11.68
2022-10-19T06:04:22.129Z,11.67
2022-10-19T06:05:24.359Z,11.67
2022-10-19T06:06:27.521Z,11.66
2022-10-19T06:07:30.051Z,11.66
2022-10-19T06:08:33.714Z,11.65
2022-10-19T06:09:37.339Z,11.70
2022-10-19T06:10:39.716Z,11.73
2022-10-19T06:11:43.049Z,11.72
2022-10-19T06:12:45.277Z,11.75
2022-10-19T06:13:50.478Z,11.74
2022-10-19T06:14:52.731Z,11.74
2022-10-19T06:15:54.940Z,11.69
2022-10-19T06:16:57.389Z,11.71
2022-10-19T06:17:59.781Z,11.70
2022-10-19T06:19:04.311Z,11.74
2022-10-19T06:20:06.995Z,11.73
2022-10-19T06:21:21.078Z,11.74
2022-10-19T06:22:23.418Z,11.76
2022-10-19T06:23:25.769Z,11.81
2022-10-19T06:24:28.330Z,11.78
2022-10-19T06:25:30.933Z,11.80
2022-10-19T06:26:35.114Z,11.78
2022-10-19T06:27:38.817Z,11.80
2022-10-19T06:28:42.745Z,11.78
2022-10-19T06:29:44.943Z,11.80
2022-10-19T06:30:47.279Z,11.83
2022-10-19T06:31:49.643Z,11.84
2022-10-19T06:32:52.317Z,11.85
2022-10-19T06:33:55.678Z,11.87
2022-10-19T06:34:58.326Z,11.87
2022-10-19T06:36:14.583Z,11.84
2022-10-19T06:37:16.796Z,11.85
2022-10-19T06:38:19.354Z,11.91
2022-10-19T06:39:22.280Z,11.90
2022-10-19T06:40:25.758Z,11.86
2022-10-19T06:41:29.013Z,11.89
2022-10-19T06:42:31.338Z,11.93
2022-10-19T06:43:34.582Z,11.96
2022-10-19T06:44:37.141Z,11.96
2022-10-19T06:45:39.710Z,11.95
2022-10-19T06:46:42.047Z,11.95
2022-10-19T06:47:44.352Z,12.00
2022-10-19T06:48:55.886Z,12.02
2022-10-19T06:49:58.145Z,12.06
2022-10-19T06:51:02.355Z,12.12
2022-10-19T06:52:06.046Z,12.13
2022-10-19T06:53:08.281Z,12.16
2022-10-19T06:54:10.502Z,12.21
2022-10-19T06:55:12.812Z,12.26
2022-10-19T06:56:15.331Z,12.26
2022-10-19T06:57:17.742Z,12.33
2022-10-19T06:58:20.600Z,12.39
2022-10-19T06:59:22.961Z,12.48
2022-10-19T07:00:25.281Z,12.45
2022-10-19T07:01:28.179Z,12.49
2022-10-19T07:02:30.497Z,12.48
2022-10-19T07:03:33.100Z,12.52
2022-10-19T07:04:35.373Z,12.53
2022-10-19T07:05:37.813Z,12.58
2022-10-19T07:06:40.219Z,12.58
2022-10-19T07:07:42.822Z,12.57
2022-10-19T07:08:47.348Z,12.62
2022-10-19T07:09:49.661Z,12.68
2022-10-19T07:10:53.746Z,12.73
2022-10-19T07:11:55.979Z,12.74
2022-10-19T07:12:58.448Z,12.76
2022-10-19T07:14:00.873Z,12.76
2022-10-19T07:15:03.910Z,12.78
2022-10-19T07:16:16.017Z,12.81
2022-10-19T07:17:22.710Z,12.85
2022-10-19T07:18:25.885Z,12.93
2022-10-19T07:19:28.272Z,13.05
2022-10-19T07:20:30.996Z,13.15
2022-10-19T07:21:33.427Z,13.15
2022-10-19T07:22:35.882Z,13.11
2022-10-19T07:23:40.043Z,13.24
2022-10-19T07:24:42.350Z,13.38
2022-10-19T07:25:45.315Z,13.56
2022-10-19T07:26:47.630Z,13.42
2022-10-19T07:27:50.020Z,13.42
2022-10-19T07:28:53.337Z,13.58
2022-10-19T07:29:55.679Z,13.70
2022-10-19T07:30:58.048Z,13.95
2022-10-19T07:32:00.600Z,15.21
2022-10-19T07:33:05.311Z,14.89
2022-10-19T07:34:08.188Z,15.68
2022-10-19T07:35:10.531Z,15.40
2022-10-19T07:36:14.236Z,15.13
2022-10-19T07:37:16.691Z,15.06
2022-10-19T07:38:20.112Z,14.85
2022-10-19T07:39:23.229Z,14.72
2022-10-19T07:40:25.508Z,14.66
2022-10-19T07:41:27.781Z,14.59
2022-10-19T07:42:32.979Z,14.64
2022-10-19T07:43:36.065Z,14.65
2022-10-19T07:44:38.379Z,14.66
2022-10-19T07:45:40.684Z,14.73
2022-10-19T07:46:43.306Z,14.64
2022-10-19T07:47:45.626Z,14.52
2022-10-19T07:48:48.647Z,14.78
2022-10-19T07:49:50.920Z,14.86
2022-10-19T07:50:53.365Z,14.86
2022-10-19T07:51:56.574Z,15.01
2022-10-19T07:52:59.095Z,15.15
2022-10-19T07:54:01.795Z,15.48
2022-10-19T07:55:04.890Z,16.46
2022-10-19T07:56:13.698Z,17.24
2022-10-19T07:57:16.731Z,16.89
2022-10-19T07:58:19.298Z,16.70
2022-10-19T07:59:21.834Z,16.56
2022-10-19T08:00:24.274Z,16.51
2022-10-19T08:01:29.692Z,16.57
2022-10-19T08:02:39.658Z,16.42
2022-10-19T08:05:18.101Z,16.48
2022-10-19T08:06:21.177Z,16.53
2022-10-19T08:07:23.526Z,16.57
2022-10-19T08:08:31.274Z,16.55
2022-10-19T08:09:52.157Z,16.54
2022-10-19T08:10:56.390Z,16.72
2022-10-19T08:11:58.930Z,16.23
2022-10-19T08:13:01.378Z,16.26
2022-10-19T08:14:04.211Z,16.46
2022-10-19T08:15:07.581Z,16.47
2022-10-19T08:16:22.760Z,16.73
2022-10-19T08:17:25.702Z,16.83
2022-10-19T08:18:28.392Z,16.81
2022-10-19T08:19:30.801Z,17.04
2022-10-19T08:20:33.061Z,17.44
2022-10-19T08:21:36.252Z,18.15
2022-10-19T08:22:38.510Z,18.08
2022-10-19T08:23:43.349Z,18.51
2022-10-19T08:24:45.659Z,18.61
2022-10-19T08:25:47.970Z,18.91
2022-10-19T08:26:51.508Z,19.20
2022-10-19T08:27:53.677Z,19.80
2022-10-19T08:29:01.578Z,20.00
2022-10-19T08:30:04.238Z,20.08
2022-10-19T08:31:12.877Z,20.02
2022-10-19T08:32:15.695Z,20.45
2022-10-19T08:33:17.974Z,21.07
2022-10-19T08:34:20.449Z,20.91
2022-10-19T08:35:22.749Z,21.03
2022-10-19T08:36:26.213Z,20.97
2022-10-19T08:37:40.612Z,21.36
2022-10-19T08:38:48.625Z,21.76
2022-10-19T08:39:51.712Z,21.87
2022-10-19T08:40:54.341Z,22.09
2022-10-19T08:42:04.576Z,22.09
2022-10-19T08:43:10.366Z,22.29
2022-10-19T08:44:49.638Z,21.58
2022-10-19T08:46:23.431Z,21.61
2022-10-19T08:47:56.408Z,21.10
2022-10-19T08:48:59.033Z,21.74
2022-10-19T08:50:01.620Z,21.21
2022-10-19T08:51:06.209Z,21.01
2022-10-19T08:52:34.219Z,21.23
2022-10-19T08:53:45.714Z,21.48
2022-10-19T08:54:54.516Z,21.15
2022-10-19T08:56:38.848Z,21.35
2022-10-19T08:58:12.941Z,21.93
2022-10-19T08:59:28.763Z,21.07
2022-10-19T09:00:51.398Z,20.39
2022-10-19T09:02:05.154Z,20.25
2022-10-19T09:03:37.595Z,20.97
2022-10-19T09:04:52.987Z,21.22
2022-10-19T09:06:35.052Z,21.09
2022-10-19T09:07:45.760Z,21.05
2022-10-19T09:08:52.089Z,20.73
2022-10-19T09:10:06.737Z,20.82
2022-10-19T09:11:11.455Z,20.73
2022-10-19T09:12:19.645Z,21.09
2022-10-19T09:14:03.761Z,20.96
2022-10-19T09:15:11.551Z,21.45
2022-10-19T09:16:17.707Z,21.31
2022-10-19T09:17:20.790Z,20.84
2022-10-19T09:18:30.043Z,20.96
2022-10-19T09:19:32.742Z,21.47
2022-10-19T09:20:41.559Z,21.93
2022-10-19T09:21:49.739Z,22.25
2022-10-19T09:23:20.675Z,21.85
2022-10-19T09:24:43.977Z,22.77
2022-10-19T09:25:49.812Z,22.72
2022-10-19T09:26:56.119Z,21.83
2022-10-19T09:28:12.790Z,22.25
2022-10-19T09:29:38.064Z,22.41
2022-10-19T09:30:43.431Z,23.01
2022-10-19T09:31:46.456Z,22.66
2022-10-19T09:33:03.698Z,23.32
2022-10-19T09:34:11.733Z,22.94
2022-10-19T09:35:26.489Z,23.48
2022-10-19T09:36:56.611Z,23.14
2022-10-19T09:38:00.393Z,23.82
2022-10-19T09:39:04.277Z,24.14
2022-10-19T09:40:07.496Z,23.89
2022-10-19T09:41:28.703Z,23.64
2022-10-19T09:42:37.628Z,23.44
2022-10-19T09:43:50.875Z,23.07
2022-10-19T09:44:55.206Z,22.42
2022-10-19T09:46:20.336Z,22.44
2022-10-19T09:47:36.716Z,22.68
2022-10-19T09:48:49.404Z,22.61
2022-10-19T09:50:16.972Z,22.87
2022-10-19T09:51:20.756Z,22.69
2022-10-19T09:52:37.319Z,23.53
2022-10-19T09:53:46.999Z,23.90
2022-10-19T09:54:59.960Z,23.66
2022-10-19T09:56:07.955Z,24.45
2022-10-19T09:57:21.144Z,24.35
2022-10-19T09:58:30.562Z,24.40
2022-10-19T09:59:37.162Z,24.29
2022-10-19T10:00:44.577Z,24.60
2022-10-19T10:02:00.528Z,24.86
2022-10-19T10:03:03.108Z,24.42
2022-10-19T10:04:10.878Z,24.73
2022-10-19T10:05:16.790Z,23.51
2022-10-19T10:06:22.696Z,23.61
2022-10-19T10:07:30.570Z,22.95
2022-10-19T10:08:39.626Z,22.60
2022-10-19T10:09:45.047Z,22.81
2022-10-19T10:10:54.425Z,23.61
2022-10-19T10:12:00.433Z,23.86
2022-10-19T10:13:03.268Z,23.84
2022-10-19T10:14:17.421Z,23.37
2022-10-19T10:15:24.713Z,21.95
2022-10-19T10:16:30.549Z,21.25
2022-10-19T10:17:33.986Z,21.02
2022-10-19T10:18:56.686Z,21.41
2022-10-19T10:19:59.101Z,21.71
2022-10-19T10:21:14.428Z,22.31
2022-10-19T10:22:37.310Z,23.11
2022-10-19T10:23:39.842Z,23.13
2022-10-19T10:24:52.670Z,23.52
2022-10-19T10:25:59.943Z,22.63
2022-10-19T10:27:05.788Z,22.37
2022-10-19T10:28:21.774Z,22.03
2022-10-19T10:29:29.924Z,22.15
2022-10-19T10:30:37.585Z,22.32
2022-10-19T10:31:42.682Z,22.02
2022-10-19T10:32:50.359Z,22.08
2022-10-19T10:34:12.323Z,22.31
2022-10-19T10:35:34.521Z,22.36
2022-10-19T10:36:37.085Z,22.24
2022-10-19T10:37:41.838Z,21.87
2022-10-19T10:39:08.660Z,21.23
2022-10-19T10:40:27.703Z,21.26
2022-10-19T10:41:36.847Z,21.05
2022-10-19T10:42:44.785Z,20.97
2022-10-19T10:44:02.380Z,20.83
2022-10-19T10:45:17.414Z,20.79
2022-10-19T10:46:23.929Z,20.35
2022-10-19T10:47:29.176Z,20.41
2022-10-19T10:48:38.773Z,20.31
2022-10-19T10:49:42.869Z,20.13
2022-10-19T10:50:45.578Z,19.57
2022-10-19T10:51:55.196Z,19.79
2022-10-19T10:52:57.396Z,19.84
2022-10-19T10:54:27.764Z,19.82
2022-10-19T10:55:32.181Z,19.88
2022-10-19T10:56:35.471Z,19.97
2022-10-19T10:57:48.243Z,20.06
2022-10-19T10:58:57.839Z,20.14
2022-10-19T11:00:14.675Z,19.98
2022-10-19T11:01:22.335Z,20.17
2022-10-19T11:02:30.681Z,20.15
2022-10-19T11:03:34.067Z,20.04
2022-10-19T11:04:41.687Z,20.00
2022-10-19T11:05:48.494Z,20.19
2022-10-19T11:06:56.570Z,20.09
2022-10-19T11:08:21.032Z,20.17
2022-10-19T11:09:28.979Z,20.11
2022-10-19T11:10:39.792Z,20.12
2022-10-19T11:11:47.786Z,20.20
2022-10-19T11:12:58.704Z,20.30
2022-10-19T11:14:29.496Z,20.24
2022-10-19T11:15:39.871Z,20.13
2022-10-19T11:16:45.264Z,19.80
2022-10-19T11:18:00.289Z,19.56
2022-10-19T11:20:17.418Z,19.74
2022-10-19T11:21:19.850Z,20.14
2022-10-19T11:22:42.267Z,19.95
2022-10-19T11:23:59.922Z,19.96
2022-10-19T11:25:30.613Z,19.74
2022-10-19T11:26:45.189Z,19.90
2022-10-19T11:27:50.402Z,19.81
2022-10-19T11:28:58.804Z,19.68
2022-10-19T11:30:18.637Z,19.42
2022-10-19T11:31:30.490Z,19.58
2022-10-19T11:32:36.175Z,19.49
2022-10-19T11:33:44.815Z,19.50
2022-10-19T11:34:58.749Z,19.57
2022-10-19T11:36:33.351Z,19.61
2022-10-19T11:38:00.411Z,19.49
2022-10-19T11:39:16.494Z,19.40
2022-10-19T11:41:18.289Z,19.29
2022-10-19T11:42:42.686Z,19.25
2022-10-19T11:44:07.055Z,19.60
2022-10-19T11:45:12.388Z,19.60
2022-10-19T11:47:03.008Z,19.80
2022-10-19T11:48:26.875Z,19.85
2022-10-19T11:49:42.561Z,19.57
2022-10-19T11:50:54.475Z,19.61
2022-10-19T11:52:20.199Z,19.67
2022-10-19T11:53:31.757Z,19.68
2022-10-19T11:54:34.139Z,20.23
2022-10-19T11:55:56.513Z,20.75
2022-10-19T11:57:15.872Z,20.71
2022-10-19T11:58:39.428Z,19.90
2022-10-19T12:00:13.850Z,19.76
2022-10-19T12:01:39.570Z,19.90
2022-10-19T12:03:03.862Z,19.68
2022-10-19T12:04:28.796Z,19.62
2022-10-19T12:05:50.135Z,19.77
2022-10-19T12:07:09.566Z,19.52
2022-10-19T12:08:50.140Z,19.67
2022-10-19T12:10:12.551Z,20.22
2022-10-19T12:11:53.548Z,20.65
2022-10-19T12:13:01.252Z,21.91
2022-10-19T12:14:06.455Z,21.82
2022-10-19T12:15:11.428Z,21.57
2022-10-19T12:16:15.031Z,21.29
2022-10-19T12:17:29.607Z,20.99
2022-10-19T12:18:47.738Z,20.80
2022-10-19T12:19:55.764Z,20.61
2022-10-19T12:21:03.774Z,20.12
2022-10-19T12:22:12.262Z,19.82
2022-10-19T12:23:23.277Z,19.43
2022-10-19T12:24:26.683Z,19.45
2022-10-19T12:25:29.218Z,19.20
2022-10-19T12:26:36.723Z,19.20
2022-10-19T12:27:41.630Z,19.12
2022-10-19T12:28:51.300Z,19.01
2022-10-19T12:29:54.065Z,19.03
2022-10-19T12:30:57.913Z,19.07
2022-10-19T12:32:01.257Z,18.96
2022-10-19T12:33:34.294Z,19.16
2022-10-19T12:34:55.485Z,18.81
2022-10-19T12:36:06.887Z,18.63
2022-10-19T12:37:42.285Z,18.55
2022-10-19T12:39:05.762Z,18.56
2022-10-19T12:40:25.839Z,18.40
2022-10-19T12:41:44.581Z,18.32
2022-10-19T12:42:55.993Z,18.26
2022-10-19T12:43:58.180Z,18.16
2022-10-19T12:45:31.020Z,18.21
2022-10-19T12:46:49.949Z,18.13
2022-10-19T12:48:08.367Z,18.21
2022-10-19T12:49:46.154Z,18.06
2022-10-19T12:50:48.676Z,18.13
2022-10-19T12:51:52.102Z,18.08
2022-10-19T12:52:54.907Z,18.25
2022-10-19T12:54:08.741Z,18.14
2022-10-19T12:55:17.049Z,18.14
2022-10-19T12:56:26.618Z,18.09
2022-10-19T12:57:30.577Z,18.05
2022-10-19T12:58:47.615Z,18.27
2022-10-19T13:00:19.788Z,18.13
2022-10-19T13:01:44.411Z,17.90
2022-10-19T13:02:48.541Z,18.03
2022-10-19T13:03:54.947Z,17.97
2022-10-19T13:04:57.840Z,17.65
2022-10-19T13:06:25.524Z,17.71
2022-10-19T13:07:32.126Z,17.77
2022-10-19T13:08:48.823Z,17.82
2022-10-19T13:10:05.748Z,17.62
2022-10-19T13:11:16.857Z,17.56
2022-10-19T13:12:33.058Z,17.53
2022-10-19T13:13:57.732Z,17.37
2022-10-19T13:15:02.725Z,17.43
2022-10-19T13:16:30.691Z,17.26
2022-10-19T13:17:34.741Z,17.26
2022-10-19T13:19:14.159Z,17.51
2022-10-19T13:20:16.970Z,17.45
2022-10-19T13:21:47.556Z,17.40
2022-10-19T13:23:04.765Z,17.36
2022-10-19T13:24:28.196Z,17.39
2022-10-19T13:25:30.541Z,17.42
2022-10-19T13:26:34.468Z,17.30
2022-10-19T13:27:37.689Z,17.28
2022-10-19T13:28:53.541Z,17.35
2022-10-19T13:29:56.380Z,17.44
2022-10-19T13:31:08.233Z,17.31
2022-10-19T13:32:37.536Z,17.34
2022-10-19T13:33:48.578Z,17.41
2022-10-19T13:34:50.918Z,17.55
2022-10-19T13:35:59.119Z,17.41
2022-10-19T13:37:03.898Z,17.61
2022-10-19T13:38:15.388Z,18.05
2022-10-19T13:39:27.957Z,18.60
2022-10-19T13:40:38.644Z,18.84
2022-10-19T13:41:50.010Z,19.05
2022-10-19T13:42:58.854Z,19.12
2022-10-19T13:44:12.288Z,19.43
2022-10-19T13:45:23.852Z,19.44
2022-10-19T13:46:28.963Z,19.35
2022-10-19T13:49:02.694Z,19.51
2022-10-19T13:50:22.743Z,19.18
2022-10-19T13:51:36.885Z,19.10
2022-10-19T13:53:18.353Z,18.91
2022-10-19T13:54:42.068Z,18.40
2022-10-19T13:55:53.559Z,18.36
2022-10-19T13:57:14.253Z,18.34
2022-10-19T13:58:44.655Z,18.21
2022-10-19T14:00:11.676Z,18.04
2022-10-19T14:01:25.700Z,17.86
2022-10-19T14:02:38.643Z,17.93
2022-10-19T14:03:49.757Z,17.91
2022-10-19T14:05:06.892Z,17.93
2022-10-19T14:06:15.055Z,17.96
2022-10-19T14:07:26.384Z,17.94
2022-10-19T14:08:55.327Z,17.78
2022-10-19T14:10:28.174Z,17.78
2022-10-19T14:11:38.729Z,17.95
2022-10-19T14:12:44.052Z,17.91
2022-10-19T14:13:47.103Z,17.77
2022-10-19T14:14:53.807Z,17.74
2022-10-19T14:16:00.392Z,17.64
2022-10-19T14:17:04.429Z,17.63
2022-10-19T14:18:29.621Z,17.56
2022-10-19T14:19:53.918Z,17.50
2022-10-19T14:21:08.107Z,17.37
2022-10-19T14:22:21.473Z,17.35
2022-10-19T14:23:27.312Z,17.33
2022-10-19T14:24:35.545Z,17.53
2022-10-19T14:25:37.845Z,17.61
2022-10-19T14:26:40.966Z,17.52
2022-10-19T14:27:44.068Z,17.36
2022-10-19T14:28:53.302Z,17.39
2022-10-19T14:29:55.547Z,17.26
2022-10-19T14:31:01.871Z,17.12
2022-10-19T14:32:04.709Z,17.09
2022-10-19T14:33:09.585Z,17.01
2022-10-19T14:34:14.506Z,17.07
2022-10-19T14:35:22.510Z,16.90
2022-10-19T14:36:32.891Z,16.82
2022-10-19T14:37:35.149Z,16.77
2022-10-19T14:38:46.636Z,16.59
2022-10-19T14:39:59.297Z,16.57
2022-10-19T14:41:03.152Z,16.51
2022-10-19T14:42:10.561Z,16.42
2022-10-19T14:43:22.024Z,16.41
2022-10-19T14:44:41.084Z,16.50
2022-10-19T14:45:43.363Z,16.50
2022-10-19T14:46:48.474Z,16.44
2022-10-19T14:47:52.383Z,16.28
2022-10-19T14:49:04.425Z,16.26
2022-10-19T14:50:08.821Z,16.27
2022-10-19T14:51:29.772Z,16.38